RCH258 LICZ-UBBB
Flight info
| Callsign | RCH258 |
|---|---|
| Flight time | N/A |
| Altitude | 37000 |
| Route | PIMOR DCT RUTOM DCT PIKOS UM600 TSL UM603 PEREN UN644 ROLIN N644 LAGAS M747 SUBUT T923 ERLEV |
| Aircraft | B737/M-SDFGHIM1RWXYZ/LB1 |
Departure
| Time | N/A |
|---|---|
| Airport | Sigonella Navy Air Base (LICZ) |
Arrival
| Time | 2026-05-03 22:50 |
|---|---|
| Airport | Heydar Aliyev International Airport (UBBB) |
| Time | Latitude | Longitude | Altitude | Speed | Heading |
|---|---|---|---|---|---|
| 2026-05-03 20:15 | 41.13680 | 28.04907 | 38731 ft | 453 kts | 90° |
| 2026-05-03 20:15 | 41.13675 | 28.09053 | 38898 ft | 454 kts | 90° |
| 2026-05-03 20:15 | 41.13669 | 28.13266 | 38996 ft | 456 kts | 90° |
| 2026-05-03 20:16 | 41.13663 | 28.16780 | 38989 ft | 456 kts | 90° |
| 2026-05-03 20:16 | 41.13643 | 28.25117 | 38997 ft | 453 kts | 90° |
| 2026-05-03 20:17 | 41.13618 | 28.33453 | 38995 ft | 450 kts | 90° |
| 2026-05-03 20:17 | 41.13580 | 28.41726 | 39000 ft | 448 kts | 90° |
| 2026-05-03 20:18 | 41.13502 | 28.49990 | 39008 ft | 446 kts | 91° |
| 2026-05-03 20:18 | 41.13414 | 28.58189 | 39001 ft | 447 kts | 91° |
| 2026-05-03 20:19 | 41.13324 | 28.66459 | 39003 ft | 448 kts | 91° |
| 2026-05-03 20:19 | 41.13230 | 28.74713 | 39009 ft | 450 kts | 91° |
| 2026-05-03 20:20 | 41.13129 | 28.83058 | 39006 ft | 452 kts | 91° |
| 2026-05-03 20:20 | 41.13023 | 28.91384 | 39004 ft | 454 kts | 91° |
| 2026-05-03 20:21 | 41.12910 | 28.99792 | 38999 ft | 456 kts | 91° |
| 2026-05-03 20:21 | 41.12791 | 29.08222 | 38998 ft | 457 kts | 91° |
| 2026-05-03 20:22 | 41.13061 | 29.16591 | 38995 ft | 457 kts | 78° |
| 2026-05-03 20:22 | 41.14631 | 29.24754 | 39004 ft | 456 kts | 74° |
| 2026-05-03 20:23 | 41.16292 | 29.32895 | 38997 ft | 455 kts | 75° |
| 2026-05-03 20:23 | 41.17873 | 29.41001 | 38997 ft | 455 kts | 75° |
| 2026-05-03 20:24 | 41.19421 | 29.49090 | 39005 ft | 454 kts | 76° |
| 2026-05-03 20:24 | 41.21034 | 29.57219 | 38994 ft | 453 kts | 74° |
| 2026-05-03 20:25 | 41.22725 | 29.65224 | 39005 ft | 452 kts | 74° |
| 2026-05-03 20:25 | 41.24413 | 29.73263 | 39001 ft | 451 kts | 74° |
| 2026-05-03 20:26 | 41.26081 | 29.81311 | 38996 ft | 451 kts | 74° |
| 2026-05-03 20:26 | 41.27733 | 29.89333 | 39006 ft | 450 kts | 75° |
| 2026-05-03 20:27 | 41.29375 | 29.97329 | 39001 ft | 450 kts | 75° |
| 2026-05-03 20:27 | 41.30954 | 30.05390 | 39006 ft | 451 kts | 76° |
| 2026-05-03 20:28 | 41.32408 | 30.13520 | 39004 ft | 451 kts | 76° |
| 2026-05-03 20:28 | 41.33848 | 30.21613 | 39002 ft | 452 kts | 76° |
| 2026-05-03 20:29 | 41.35309 | 30.29769 | 39000 ft | 452 kts | 76° |
| 2026-05-03 20:29 | 41.36772 | 30.37924 | 38999 ft | 452 kts | 76° |
| 2026-05-03 20:30 | 41.38223 | 30.46046 | 38996 ft | 453 kts | 76° |
| 2026-05-03 20:30 | 41.39671 | 30.54198 | 39002 ft | 453 kts | 76° |
| 2026-05-03 20:31 | 41.41117 | 30.62369 | 38999 ft | 453 kts | 76° |
| 2026-05-03 20:31 | 41.42562 | 30.70565 | 39004 ft | 453 kts | 77° |
| 2026-05-03 20:32 | 41.44068 | 30.78720 | 38997 ft | 453 kts | 75° |
| 2026-05-03 20:32 | 41.45663 | 30.86809 | 38997 ft | 453 kts | 75° |
| 2026-05-03 20:33 | 41.47259 | 30.94950 | 38999 ft | 453 kts | 75° |
| 2026-05-03 20:33 | 41.48823 | 31.03041 | 39006 ft | 453 kts | 75° |
| 2026-05-03 20:34 | 41.50386 | 31.11184 | 39001 ft | 452 kts | 75° |
| 2026-05-03 20:34 | 41.51937 | 31.19301 | 38999 ft | 452 kts | 75° |
| 2026-05-03 20:35 | 41.53487 | 31.27444 | 39003 ft | 452 kts | 76° |
| 2026-05-03 20:35 | 41.55034 | 31.35602 | 39000 ft | 452 kts | 76° |
| 2026-05-03 20:36 | 41.56557 | 31.43714 | 39006 ft | 452 kts | 76° |
| 2026-05-03 20:36 | 41.57822 | 31.50495 | 39004 ft | 452 kts | 76° |
| 2026-05-03 20:37 | 41.59585 | 31.59984 | 38996 ft | 452 kts | 76° |
| 2026-05-03 20:37 | 41.60843 | 31.66778 | 39002 ft | 452 kts | 76° |
| 2026-05-03 20:38 | 41.62593 | 31.76268 | 38996 ft | 452 kts | 76° |
| 2026-05-03 20:38 | 41.63852 | 31.83124 | 39003 ft | 452 kts | 76° |
| 2026-05-03 20:39 | 41.65340 | 31.91260 | 39006 ft | 452 kts | 76° |
| 2026-05-03 20:39 | 41.66830 | 31.99444 | 38997 ft | 452 kts | 76° |
| 2026-05-03 20:40 | 41.68305 | 32.07579 | 38999 ft | 452 kts | 76° |
| 2026-05-03 20:40 | 41.69787 | 32.15791 | 39004 ft | 452 kts | 76° |
| 2026-05-03 20:41 | 41.71251 | 32.23936 | 39000 ft | 452 kts | 76° |
| 2026-05-03 20:41 | 41.72714 | 32.32145 | 39004 ft | 452 kts | 77° |
| 2026-05-03 20:42 | 41.74105 | 32.40385 | 39005 ft | 453 kts | 77° |
| 2026-05-03 20:42 | 41.75466 | 32.48579 | 38990 ft | 453 kts | 77° |
| 2026-05-03 20:43 | 41.76838 | 32.56833 | 38999 ft | 453 kts | 77° |
| 2026-05-03 20:43 | 41.78201 | 32.65041 | 38993 ft | 454 kts | 77° |
| 2026-05-03 20:44 | 41.79570 | 32.73319 | 39003 ft | 454 kts | 77° |
| 2026-05-03 20:44 | 41.80935 | 32.81609 | 38997 ft | 455 kts | 77° |
| 2026-05-03 20:45 | 41.82286 | 32.89858 | 39009 ft | 455 kts | 77° |
| 2026-05-03 20:45 | 41.83642 | 32.98176 | 39004 ft | 455 kts | 77° |
| 2026-05-03 20:46 | 41.84279 | 33.02094 | 38990 ft | 456 kts | 77° |
| 2026-05-03 20:46 | 41.85621 | 33.10412 | 39004 ft | 456 kts | 78° |
| 2026-05-03 20:47 | 41.86946 | 33.18699 | 39003 ft | 457 kts | 78° |
| 2026-05-03 20:47 | 41.88276 | 33.27065 | 39000 ft | 457 kts | 78° |
| 2026-05-03 20:48 | 41.89599 | 33.35416 | 39011 ft | 457 kts | 78° |
| 2026-05-03 20:48 | 41.90911 | 33.43740 | 38999 ft | 458 kts | 78° |
| 2026-05-03 20:49 | 41.92219 | 33.52080 | 39007 ft | 458 kts | 78° |
| 2026-05-03 20:49 | 41.93528 | 33.60466 | 39013 ft | 458 kts | 78° |
| 2026-05-03 20:50 | 41.94830 | 33.68845 | 38996 ft | 457 kts | 78° |
| 2026-05-03 20:50 | 41.95651 | 33.77316 | 39008 ft | 456 kts | 85° |
| 2026-05-03 20:51 | 41.96069 | 33.85820 | 39013 ft | 455 kts | 86° |
| 2026-05-03 20:51 | 41.96482 | 33.94312 | 38998 ft | 455 kts | 86° |
| 2026-05-03 20:52 | 41.96932 | 34.02738 | 39000 ft | 454 kts | 85° |
| 2026-05-03 20:52 | 41.97400 | 34.11192 | 39003 ft | 453 kts | 85° |
| 2026-05-03 20:53 | 41.97861 | 34.19590 | 39003 ft | 452 kts | 85° |
| 2026-05-03 20:53 | 41.98317 | 34.28012 | 39003 ft | 451 kts | 86° |
| 2026-05-03 20:54 | 41.98764 | 34.36432 | 39000 ft | 451 kts | 86° |
| 2026-05-03 20:54 | 41.99423 | 34.49046 | 38995 ft | 450 kts | 86° |
| 2026-05-03 20:55 | 41.99851 | 34.57382 | 39004 ft | 450 kts | 86° |
| 2026-05-03 20:55 | 42.00277 | 34.65811 | 39005 ft | 451 kts | 86° |
| 2026-05-03 20:56 | 42.00698 | 34.74243 | 39002 ft | 451 kts | 86° |
| 2026-05-03 20:56 | 42.01109 | 34.82619 | 39004 ft | 452 kts | 86° |
| 2026-05-03 20:57 | 42.01518 | 34.91074 | 39005 ft | 452 kts | 86° |
| 2026-05-03 20:57 | 42.01922 | 34.99536 | 39003 ft | 453 kts | 86° |
| 2026-05-03 20:58 | 42.02296 | 35.07966 | 39002 ft | 453 kts | 89° |
| 2026-05-03 20:58 | 42.01990 | 35.16442 | 39003 ft | 453 kts | 95° |
| 2026-05-03 20:59 | 42.01462 | 35.24846 | 39004 ft | 454 kts | 95° |
| 2026-05-03 20:59 | 42.00949 | 35.33305 | 38997 ft | 454 kts | 94° |
| 2026-05-03 21:00 | 42.00551 | 35.40355 | 39004 ft | 453 kts | 94° |
| 2026-05-03 21:00 | 42.00007 | 35.50220 | 38998 ft | 453 kts | 94° |
| 2026-05-03 21:01 | 41.99536 | 35.58684 | 38996 ft | 453 kts | 94° |
| 2026-05-03 21:01 | 41.99061 | 35.67099 | 38991 ft | 453 kts | 94° |
| 2026-05-03 21:02 | 41.98576 | 35.75543 | 39004 ft | 452 kts | 94° |
| 2026-05-03 21:02 | 41.98089 | 35.83931 | 39004 ft | 452 kts | 94° |
| 2026-05-03 21:03 | 41.97592 | 35.92372 | 39000 ft | 452 kts | 95° |
| 2026-05-03 21:03 | 41.97090 | 36.00800 | 39005 ft | 452 kts | 95° |
| 2026-05-03 21:04 | 41.96581 | 36.09236 | 39004 ft | 452 kts | 95° |
| 2026-05-03 21:04 | 41.96069 | 36.17619 | 39004 ft | 452 kts | 95° |
| 2026-05-03 21:05 | 41.95548 | 36.26043 | 38999 ft | 452 kts | 95° |
| 2026-05-03 21:05 | 41.95020 | 36.34480 | 39005 ft | 452 kts | 95° |
| 2026-05-03 21:06 | 41.94490 | 36.42856 | 39004 ft | 452 kts | 95° |
| 2026-05-03 21:06 | 41.93950 | 36.51285 | 39001 ft | 452 kts | 95° |
| 2026-05-03 21:07 | 41.93408 | 36.59662 | 39004 ft | 452 kts | 95° |
| 2026-05-03 21:07 | 41.92854 | 36.68107 | 38996 ft | 452 kts | 95° |
| 2026-05-03 21:08 | 41.92300 | 36.76484 | 39004 ft | 452 kts | 95° |
| 2026-05-03 21:08 | 41.91735 | 36.84914 | 38999 ft | 453 kts | 95° |
| 2026-05-03 21:09 | 41.91165 | 36.93336 | 39004 ft | 453 kts | 95° |
| 2026-05-03 21:09 | 41.90591 | 37.01740 | 39002 ft | 453 kts | 95° |
| 2026-05-03 21:10 | 41.90206 | 37.10173 | 38998 ft | 453 kts | 91° |
| 2026-05-03 21:10 | 41.90117 | 37.18641 | 39004 ft | 453 kts | 90° |
| 2026-05-03 21:11 | 41.90047 | 37.27041 | 38997 ft | 453 kts | 91° |
| 2026-05-03 21:11 | 41.89936 | 37.35494 | 39003 ft | 453 kts | 91° |
| 2026-05-03 21:12 | 41.89800 | 37.43957 | 39003 ft | 453 kts | 91° |
| 2026-05-03 21:12 | 41.89652 | 37.52400 | 39003 ft | 453 kts | 91° |
| 2026-05-03 21:13 | 41.89499 | 37.60820 | 39004 ft | 452 kts | 91° |
| 2026-05-03 21:13 | 41.89339 | 37.69269 | 39003 ft | 452 kts | 91° |
| 2026-05-03 21:14 | 41.89175 | 37.77681 | 39003 ft | 452 kts | 91° |
| 2026-05-03 21:14 | 41.89004 | 37.86136 | 39004 ft | 452 kts | 91° |
| 2026-05-03 21:15 | 41.88828 | 37.94545 | 38998 ft | 452 kts | 91° |
| 2026-05-03 21:15 | 41.88668 | 38.01912 | 39004 ft | 452 kts | 91° |
| 2026-05-03 21:16 | 41.88559 | 38.06830 | 39003 ft | 452 kts | 91° |
| 2026-05-03 21:16 | 41.88366 | 38.15283 | 39004 ft | 452 kts | 92° |
| 2026-05-03 21:17 | 41.88201 | 38.22301 | 38997 ft | 452 kts | 92° |
| 2026-05-03 21:17 | 41.87964 | 38.32132 | 38999 ft | 452 kts | 92° |
| 2026-05-03 21:18 | 41.87752 | 38.40595 | 39003 ft | 452 kts | 92° |
| 2026-05-03 21:18 | 41.87536 | 38.48998 | 39004 ft | 452 kts | 92° |
| 2026-05-03 21:19 | 41.87312 | 38.57459 | 38999 ft | 452 kts | 92° |
| 2026-05-03 21:19 | 41.87084 | 38.65861 | 39003 ft | 452 kts | 92° |
| 2026-05-03 21:20 | 41.86848 | 38.74322 | 39003 ft | 452 kts | 92° |
| 2026-05-03 21:20 | 41.86607 | 38.82715 | 38997 ft | 452 kts | 92° |
| 2026-05-03 21:21 | 41.86359 | 38.91159 | 39003 ft | 452 kts | 92° |
| 2026-05-03 21:21 | 41.86104 | 38.99623 | 39004 ft | 452 kts | 92° |
| 2026-05-03 21:22 | 41.85844 | 39.08066 | 38994 ft | 452 kts | 92° |
| 2026-05-03 21:22 | 41.85579 | 39.16449 | 39004 ft | 452 kts | 92° |
| 2026-05-03 21:23 | 41.85306 | 39.24889 | 39003 ft | 452 kts | 92° |
| 2026-05-03 21:23 | 41.85028 | 39.33302 | 39001 ft | 452 kts | 92° |
| 2026-05-03 21:24 | 41.84743 | 39.41757 | 38997 ft | 452 kts | 92° |
| 2026-05-03 21:24 | 41.84455 | 39.50153 | 39004 ft | 452 kts | 92° |
| 2026-05-03 21:25 | 41.84163 | 39.58599 | 39004 ft | 452 kts | 92° |
| 2026-05-03 21:25 | 41.83923 | 39.65616 | 39004 ft | 452 kts | 92° |
| 2026-05-03 21:26 | 41.83630 | 39.74052 | 39003 ft | 452 kts | 92° |
| 2026-05-03 21:26 | 41.83330 | 39.82446 | 39004 ft | 452 kts | 92° |
| 2026-05-03 21:27 | 41.83022 | 39.90897 | 38994 ft | 452 kts | 93° |
| 2026-05-03 21:27 | 41.82709 | 39.99328 | 39000 ft | 452 kts | 93° |
| 2026-05-03 21:28 | 41.82392 | 40.07729 | 39004 ft | 452 kts | 93° |
| 2026-05-03 21:28 | 41.82061 | 40.16175 | 39004 ft | 452 kts | 93° |
| 2026-05-03 21:29 | 41.81709 | 40.24555 | 39004 ft | 452 kts | 93° |
| 2026-05-03 21:29 | 41.81346 | 40.32997 | 39004 ft | 452 kts | 93° |
| 2026-05-03 21:30 | 41.80979 | 40.41434 | 38998 ft | 452 kts | 93° |
| 2026-05-03 21:30 | 41.80610 | 40.49835 | 39004 ft | 452 kts | 93° |
| 2026-05-03 21:31 | 41.80234 | 40.58261 | 39004 ft | 452 kts | 93° |
| 2026-05-03 21:31 | 41.79853 | 40.66636 | 38995 ft | 452 kts | 94° |
| 2026-05-03 21:32 | 41.79447 | 40.75063 | 39004 ft | 452 kts | 94° |
| 2026-05-03 21:32 | 41.79029 | 40.83490 | 39004 ft | 452 kts | 94° |
| 2026-05-03 21:33 | 41.78609 | 40.91863 | 39002 ft | 452 kts | 94° |
| 2026-05-03 21:33 | 41.78182 | 41.00288 | 39004 ft | 452 kts | 94° |
| 2026-05-03 21:34 | 41.77750 | 41.08709 | 38996 ft | 452 kts | 94° |
| 2026-05-03 21:34 | 41.77313 | 41.17092 | 39002 ft | 452 kts | 94° |
| 2026-05-03 21:35 | 41.76867 | 41.25531 | 39000 ft | 452 kts | 94° |
| 2026-05-03 21:35 | 41.76419 | 41.33895 | 39004 ft | 452 kts | 94° |
| 2026-05-03 21:36 | 41.75963 | 41.42306 | 39001 ft | 452 kts | 94° |
| 2026-05-03 21:36 | 41.75500 | 41.50720 | 39004 ft | 452 kts | 94° |
| 2026-05-03 21:37 | 41.75033 | 41.59093 | 38995 ft | 452 kts | 94° |
| 2026-05-03 21:37 | 41.74558 | 41.67505 | 38998 ft | 452 kts | 94° |
| 2026-05-03 21:38 | 41.74077 | 41.75912 | 39004 ft | 452 kts | 94° |
| 2026-05-03 21:38 | 41.73588 | 41.84350 | 38997 ft | 453 kts | 94° |
| 2026-05-03 21:39 | 41.73095 | 41.92740 | 38999 ft | 455 kts | 94° |
| 2026-05-03 21:39 | 41.72592 | 42.01212 | 39005 ft | 457 kts | 95° |
| 2026-05-03 21:40 | 41.72084 | 42.09678 | 39002 ft | 459 kts | 95° |
| 2026-05-03 21:40 | 41.71568 | 42.18246 | 39009 ft | 461 kts | 95° |
| 2026-05-03 21:41 | 41.71053 | 42.26777 | 38990 ft | 463 kts | 95° |
| 2026-05-03 21:41 | 41.70525 | 42.35418 | 39007 ft | 465 kts | 95° |
| 2026-05-03 21:42 | 41.69990 | 42.44070 | 39000 ft | 466 kts | 95° |
| 2026-05-03 21:42 | 41.69450 | 42.52678 | 39003 ft | 467 kts | 95° |
| 2026-05-03 21:43 | 41.68898 | 42.61368 | 39005 ft | 467 kts | 95° |
| 2026-05-03 21:43 | 41.68346 | 42.69972 | 39001 ft | 466 kts | 95° |
| 2026-05-03 21:44 | 41.67785 | 42.78610 | 38999 ft | 464 kts | 95° |
| 2026-05-03 21:44 | 41.67223 | 42.87167 | 39001 ft | 463 kts | 95° |
| 2026-05-03 21:45 | 41.66636 | 42.95761 | 39005 ft | 461 kts | 95° |
| 2026-05-03 21:45 | 41.66089 | 43.03610 | 38995 ft | 459 kts | 95° |
| 2026-05-03 21:46 | 41.65833 | 43.07277 | 39004 ft | 459 kts | 95° |
| 2026-05-03 21:46 | 41.65236 | 43.15765 | 39000 ft | 458 kts | 95° |
| 2026-05-03 21:47 | 41.64639 | 43.24194 | 38990 ft | 457 kts | 95° |
| 2026-05-03 21:47 | 41.64032 | 43.32667 | 38993 ft | 458 kts | 95° |
| 2026-05-03 21:48 | 41.63416 | 43.41175 | 39002 ft | 460 kts | 95° |
| 2026-05-03 21:48 | 41.62791 | 43.49729 | 39013 ft | 463 kts | 96° |
| 2026-05-03 21:49 | 41.62161 | 43.58283 | 39013 ft | 466 kts | 96° |
| 2026-05-03 21:49 | 41.61518 | 43.66958 | 39006 ft | 469 kts | 96° |
| 2026-05-03 21:50 | 41.60867 | 43.75656 | 39002 ft | 471 kts | 96° |
| 2026-05-03 21:50 | 41.60212 | 43.84322 | 39008 ft | 472 kts | 96° |
| 2026-05-03 21:51 | 41.59545 | 43.93059 | 39004 ft | 470 kts | 96° |
| 2026-05-03 21:51 | 41.58875 | 44.01744 | 38988 ft | 468 kts | 96° |
| 2026-05-03 21:52 | 41.58206 | 44.10329 | 39000 ft | 465 kts | 96° |
| 2026-05-03 21:52 | 41.57532 | 44.18910 | 38994 ft | 463 kts | 96° |
| 2026-05-03 21:53 | 41.56303 | 44.27322 | 39006 ft | 460 kts | 108° |
| 2026-05-03 21:53 | 41.54273 | 44.35370 | 39011 ft | 458 kts | 109° |
| 2026-05-03 21:54 | 41.52208 | 44.43417 | 39000 ft | 457 kts | 109° |
| 2026-05-03 21:54 | 41.50196 | 44.51424 | 38997 ft | 455 kts | 108° |
| 2026-05-03 21:55 | 41.48197 | 44.59450 | 39003 ft | 454 kts | 108° |
| 2026-05-03 21:55 | 41.46219 | 44.67383 | 38998 ft | 453 kts | 108° |
| 2026-05-03 21:56 | 41.44225 | 44.75349 | 39004 ft | 452 kts | 109° |
| 2026-05-03 21:56 | 41.42228 | 44.83292 | 38998 ft | 451 kts | 109° |
| 2026-05-03 21:57 | 41.40225 | 44.91232 | 39006 ft | 451 kts | 109° |
| 2026-05-03 21:57 | 41.38232 | 44.99110 | 39006 ft | 451 kts | 109° |
| 2026-05-03 21:58 | 41.36216 | 45.07054 | 39006 ft | 452 kts | 109° |
| 2026-05-03 21:58 | 41.34193 | 45.14984 | 39002 ft | 453 kts | 109° |
| 2026-05-03 21:59 | 41.32169 | 45.22882 | 38994 ft | 453 kts | 109° |
| 2026-05-03 21:59 | 41.30125 | 45.30837 | 38995 ft | 454 kts | 109° |
| 2026-05-03 22:00 | 41.28073 | 45.38804 | 39006 ft | 454 kts | 109° |
| 2026-05-03 22:00 | 41.26026 | 45.46722 | 39006 ft | 455 kts | 109° |
| 2026-05-03 22:01 | 41.23958 | 45.54700 | 39001 ft | 455 kts | 109° |
| 2026-05-03 22:01 | 41.21900 | 45.62615 | 39000 ft | 456 kts | 109° |
| 2026-05-03 22:02 | 41.19813 | 45.70573 | 39001 ft | 456 kts | 109° |
| 2026-05-03 22:02 | 41.17700 | 45.78536 | 38994 ft | 456 kts | 109° |
| 2026-05-03 22:03 | 41.15596 | 45.86442 | 39005 ft | 456 kts | 109° |
| 2026-05-03 22:03 | 41.13477 | 45.94394 | 38995 ft | 456 kts | 110° |
| 2026-05-03 22:04 | 41.11355 | 46.02336 | 39004 ft | 456 kts | 110° |
| 2026-05-03 22:04 | 41.09237 | 46.10235 | 39000 ft | 456 kts | 110° |
| 2026-05-03 22:05 | 41.07106 | 46.18159 | 39005 ft | 455 kts | 110° |
| 2026-05-03 22:05 | 41.04990 | 46.26008 | 39005 ft | 454 kts | 110° |
| 2026-05-03 22:06 | 41.02867 | 46.33893 | 38997 ft | 453 kts | 109° |
| 2026-05-03 22:06 | 41.00766 | 46.41785 | 38999 ft | 453 kts | 109° |
| 2026-05-03 22:07 | 40.98679 | 46.49610 | 38996 ft | 453 kts | 110° |
| 2026-05-03 22:07 | 40.96573 | 46.57470 | 39002 ft | 452 kts | 110° |
| 2026-05-03 22:08 | 40.94471 | 46.65285 | 38996 ft | 452 kts | 110° |
| 2026-05-03 22:08 | 40.92359 | 46.73114 | 38994 ft | 452 kts | 110° |
| 2026-05-03 22:09 | 40.90266 | 46.80963 | 39003 ft | 452 kts | 106° |
| 2026-05-03 22:10 | 40.89093 | 46.91890 | 38996 ft | 451 kts | 95° |
| 2026-05-03 22:10 | 40.88483 | 47.01526 | 39004 ft | 452 kts | 95° |
| 2026-05-03 22:11 | 40.88006 | 47.08420 | 38994 ft | 453 kts | 95° |
| 2026-05-03 22:11 | 40.87703 | 47.12592 | 38627 ft | 457 kts | 95° |
| 2026-05-03 22:11 | 40.87400 | 47.16701 | 38263 ft | 451 kts | 96° |
| 2026-05-03 22:11 | 40.87094 | 47.20809 | 37817 ft | 446 kts | 96° |
| 2026-05-03 22:12 | 40.86790 | 47.24866 | 37391 ft | 441 kts | 96° |
| 2026-05-03 22:12 | 40.86488 | 47.28887 | 36964 ft | 436 kts | 96° |
| 2026-05-03 22:12 | 40.86189 | 47.32857 | 36541 ft | 431 kts | 96° |
| 2026-05-03 22:12 | 40.85893 | 47.36778 | 36125 ft | 427 kts | 96° |
| 2026-05-03 22:13 | 40.85601 | 47.40627 | 35703 ft | 423 kts | 96° |
| 2026-05-03 22:13 | 40.85307 | 47.44490 | 35272 ft | 419 kts | 96° |
| 2026-05-03 22:13 | 40.85015 | 47.48313 | 34849 ft | 416 kts | 96° |
| 2026-05-03 22:13 | 40.84726 | 47.52098 | 34441 ft | 412 kts | 95° |
| 2026-05-03 22:14 | 40.84475 | 47.55861 | 34097 ft | 407 kts | 95° |
| 2026-05-03 22:14 | 40.84251 | 47.59540 | 33684 ft | 404 kts | 94° |
| 2026-05-03 22:14 | 40.84031 | 47.63251 | 33282 ft | 401 kts | 94° |
| 2026-05-03 22:14 | 40.83816 | 47.66877 | 32883 ft | 398 kts | 95° |
| 2026-05-03 22:15 | 40.83596 | 47.70527 | 32486 ft | 396 kts | 95° |
| 2026-05-03 22:15 | 40.83374 | 47.74141 | 32091 ft | 393 kts | 95° |
| 2026-05-03 22:15 | 40.83152 | 47.77729 | 31703 ft | 390 kts | 95° |
| 2026-05-03 22:15 | 40.82937 | 47.81146 | 31334 ft | 388 kts | 95° |
| 2026-05-03 22:16 | 40.82745 | 47.84186 | 31008 ft | 385 kts | 95° |
| 2026-05-03 22:16 | 40.82522 | 47.87705 | 30632 ft | 383 kts | 95° |
| 2026-05-03 22:16 | 40.82301 | 47.91161 | 30254 ft | 380 kts | 95° |
| 2026-05-03 22:17 | 40.82077 | 47.94634 | 29898 ft | 378 kts | 95° |
| 2026-05-03 22:17 | 40.81855 | 47.98080 | 29520 ft | 375 kts | 95° |
| 2026-05-03 22:17 | 40.81634 | 48.01491 | 29132 ft | 372 kts | 95° |
| 2026-05-03 22:17 | 40.81413 | 48.04882 | 28738 ft | 369 kts | 95° |
| 2026-05-03 22:18 | 40.81193 | 48.08243 | 28352 ft | 366 kts | 95° |
| 2026-05-03 22:18 | 40.80976 | 48.11540 | 27974 ft | 363 kts | 95° |
| 2026-05-03 22:18 | 40.80757 | 48.14862 | 27595 ft | 360 kts | 95° |
| 2026-05-03 22:18 | 40.80539 | 48.18144 | 27210 ft | 357 kts | 95° |
| 2026-05-03 22:19 | 40.80325 | 48.21367 | 26851 ft | 354 kts | 95° |
| 2026-05-03 22:19 | 40.80109 | 48.24592 | 26467 ft | 352 kts | 95° |
| 2026-05-03 22:19 | 40.79893 | 48.27808 | 26112 ft | 348 kts | 95° |
| 2026-05-03 22:19 | 40.79679 | 48.30979 | 25735 ft | 346 kts | 95° |
| 2026-05-03 22:20 | 40.79465 | 48.34134 | 25361 ft | 343 kts | 95° |
| 2026-05-03 22:20 | 40.79256 | 48.37222 | 25004 ft | 340 kts | 95° |
| 2026-05-03 22:20 | 40.79042 | 48.40346 | 24622 ft | 338 kts | 95° |
| 2026-05-03 22:20 | 40.78831 | 48.43435 | 24265 ft | 336 kts | 95° |
| 2026-05-03 22:21 | 40.78620 | 48.46499 | 23894 ft | 333 kts | 95° |
| 2026-05-03 22:21 | 40.78413 | 48.49498 | 23527 ft | 331 kts | 95° |
| 2026-05-03 22:21 | 40.78202 | 48.52529 | 23177 ft | 332 kts | 95° |
| 2026-05-03 22:21 | 40.77990 | 48.55583 | 22799 ft | 336 kts | 95° |
| 2026-05-03 22:22 | 40.77773 | 48.58683 | 22424 ft | 341 kts | 95° |
| 2026-05-03 22:22 | 40.77553 | 48.61823 | 22032 ft | 345 kts | 95° |
| 2026-05-03 22:22 | 40.77332 | 48.64962 | 21633 ft | 342 kts | 95° |
| 2026-05-03 22:22 | 40.77114 | 48.68045 | 21260 ft | 338 kts | 95° |
| 2026-05-03 22:23 | 40.76895 | 48.71137 | 20868 ft | 336 kts | 95° |
| 2026-05-03 22:23 | 40.76677 | 48.74195 | 20494 ft | 333 kts | 95° |
| 2026-05-03 22:23 | 40.76460 | 48.77227 | 20104 ft | 330 kts | 95° |
| 2026-05-03 22:23 | 40.76247 | 48.80194 | 19743 ft | 327 kts | 95° |
| 2026-05-03 22:24 | 40.76032 | 48.83181 | 19357 ft | 325 kts | 95° |
| 2026-05-03 22:24 | 40.75818 | 48.86144 | 18995 ft | 322 kts | 95° |
| 2026-05-03 22:24 | 40.75605 | 48.89082 | 18612 ft | 320 kts | 95° |
| 2026-05-03 22:24 | 40.75392 | 48.92008 | 18238 ft | 318 kts | 95° |
| 2026-05-03 22:25 | 40.75183 | 48.94865 | 17875 ft | 315 kts | 95° |
| 2026-05-03 22:25 | 40.74972 | 48.97741 | 17498 ft | 313 kts | 95° |
| 2026-05-03 22:25 | 40.74762 | 49.00602 | 17132 ft | 311 kts | 96° |
| 2026-05-03 22:25 | 40.74553 | 49.03431 | 16766 ft | 309 kts | 96° |
| 2026-05-03 22:26 | 40.74345 | 49.06248 | 16400 ft | 307 kts | 96° |
| 2026-05-03 22:26 | 40.74139 | 49.09010 | 16039 ft | 305 kts | 96° |
| 2026-05-03 22:26 | 40.73932 | 49.11792 | 15683 ft | 303 kts | 96° |
| 2026-05-03 22:26 | 40.73726 | 49.14550 | 15304 ft | 301 kts | 96° |
| 2026-05-03 22:27 | 40.73521 | 49.17295 | 14936 ft | 300 kts | 96° |
| 2026-05-03 22:27 | 40.73315 | 49.20028 | 14557 ft | 298 kts | 96° |
| 2026-05-03 22:27 | 40.73113 | 49.22709 | 14182 ft | 297 kts | 96° |
| 2026-05-03 22:27 | 40.72938 | 49.25402 | 13979 ft | 290 kts | 93° |
| 2026-05-03 22:28 | 40.72861 | 49.28058 | 13892 ft | 291 kts | 91° |
| 2026-05-03 22:28 | 40.72810 | 49.30756 | 13802 ft | 297 kts | 91° |
| 2026-05-03 22:28 | 40.72761 | 49.33504 | 13724 ft | 301 kts | 91° |
| 2026-05-03 22:28 | 40.72708 | 49.36256 | 13628 ft | 300 kts | 91° |
| 2026-05-03 22:29 | 40.72650 | 49.38999 | 13538 ft | 298 kts | 91° |
| 2026-05-03 22:29 | 40.72590 | 49.41722 | 13444 ft | 297 kts | 91° |
| 2026-05-03 22:29 | 40.72418 | 49.44424 | 13321 ft | 295 kts | 107° |
| 2026-05-03 22:29 | 40.71388 | 49.46695 | 13015 ft | 289 kts | 139° |
| 2026-05-03 22:30 | 40.69684 | 49.48044 | 12603 ft | 287 kts | 157° |
| 2026-05-03 22:30 | 40.67872 | 49.49057 | 12386 ft | 284 kts | 159° |
| 2026-05-03 22:30 | 40.66044 | 49.50031 | 12214 ft | 283 kts | 159° |
| 2026-05-03 22:30 | 40.64215 | 49.51003 | 12056 ft | 284 kts | 159° |
| 2026-05-03 22:31 | 40.62377 | 49.51986 | 11907 ft | 286 kts | 159° |
| 2026-05-03 22:31 | 40.60534 | 49.52980 | 11746 ft | 287 kts | 158° |
| 2026-05-03 22:31 | 40.58706 | 49.53971 | 11590 ft | 287 kts | 158° |
| 2026-05-03 22:31 | 40.56858 | 49.54978 | 11437 ft | 287 kts | 158° |
| 2026-05-03 22:32 | 40.55010 | 49.55987 | 11278 ft | 287 kts | 158° |
| 2026-05-03 22:32 | 40.53163 | 49.56997 | 11123 ft | 287 kts | 158° |
| 2026-05-03 22:32 | 40.51319 | 49.58006 | 10968 ft | 286 kts | 158° |
| 2026-05-03 22:32 | 40.49484 | 49.59010 | 10814 ft | 286 kts | 158° |
| 2026-05-03 22:33 | 40.47668 | 49.60004 | 10655 ft | 285 kts | 158° |
| 2026-05-03 22:33 | 40.45831 | 49.61009 | 10507 ft | 284 kts | 158° |
| 2026-05-03 22:33 | 40.44004 | 49.62008 | 10353 ft | 284 kts | 158° |
| 2026-05-03 22:33 | 40.42181 | 49.63004 | 10201 ft | 283 kts | 158° |
| 2026-05-03 22:34 | 40.40368 | 49.63995 | 10047 ft | 282 kts | 158° |
| 2026-05-03 22:34 | 40.38561 | 49.64981 | 9899 ft | 281 kts | 158° |
| 2026-05-03 22:34 | 40.36785 | 49.65951 | 9754 ft | 280 kts | 158° |
| 2026-05-03 22:34 | 40.34985 | 49.66932 | 9600 ft | 279 kts | 158° |
| 2026-05-03 22:35 | 40.33188 | 49.67912 | 9450 ft | 278 kts | 158° |
| 2026-05-03 22:35 | 40.31396 | 49.68889 | 9299 ft | 277 kts | 158° |
| 2026-05-03 22:35 | 40.29609 | 49.69861 | 9150 ft | 277 kts | 158° |
| 2026-05-03 22:35 | 40.27857 | 49.70813 | 8989 ft | 276 kts | 159° |
| 2026-05-03 22:36 | 40.26006 | 49.71562 | 8707 ft | 278 kts | 168° |
| 2026-05-03 22:36 | 40.24126 | 49.72069 | 8438 ft | 274 kts | 170° |
| 2026-05-03 22:36 | 40.22273 | 49.72550 | 8167 ft | 269 kts | 169° |
| 2026-05-03 22:36 | 40.20443 | 49.73051 | 7913 ft | 267 kts | 169° |
| 2026-05-03 22:37 | 40.18626 | 49.73569 | 7653 ft | 265 kts | 168° |
| 2026-05-03 22:37 | 40.16861 | 49.74082 | 7396 ft | 260 kts | 168° |
| 2026-05-03 22:37 | 40.15105 | 49.74595 | 7142 ft | 256 kts | 168° |
| 2026-05-03 22:37 | 40.13467 | 49.75384 | 6980 ft | 248 kts | 145° |
| 2026-05-03 22:38 | 40.12217 | 49.76848 | 6979 ft | 237 kts | 136° |
| 2026-05-03 22:38 | 40.11059 | 49.78335 | 6971 ft | 234 kts | 136° |
| 2026-05-03 22:38 | 40.09896 | 49.79821 | 6971 ft | 234 kts | 136° |
| 2026-05-03 22:38 | 40.08724 | 49.81309 | 6984 ft | 236 kts | 136° |
| 2026-05-03 22:39 | 40.07542 | 49.82805 | 6983 ft | 237 kts | 137° |
| 2026-05-03 22:39 | 40.06361 | 49.84326 | 6981 ft | 239 kts | 131° |
| 2026-05-03 22:39 | 40.05522 | 49.86199 | 6985 ft | 239 kts | 115° |
| 2026-05-03 22:39 | 40.04823 | 49.88183 | 6975 ft | 241 kts | 115° |
| 2026-05-03 22:40 | 40.04105 | 49.90161 | 6976 ft | 241 kts | 116° |
| 2026-05-03 22:40 | 40.03388 | 49.92107 | 6971 ft | 241 kts | 116° |
| 2026-05-03 22:40 | 40.02658 | 49.94071 | 6969 ft | 240 kts | 116° |
| 2026-05-03 22:40 | 40.01930 | 49.96029 | 6969 ft | 239 kts | 115° |
| 2026-05-03 22:41 | 40.01504 | 49.98107 | 6976 ft | 237 kts | 95° |
| 2026-05-03 22:41 | 40.01462 | 50.00269 | 6711 ft | 245 kts | 78° |
| 2026-05-03 22:41 | 40.02309 | 50.02128 | 6427 ft | 239 kts | 37° |
| 2026-05-03 22:41 | 40.03819 | 50.02875 | 6202 ft | 231 kts | 5° |
| 2026-05-03 22:42 | 40.05377 | 50.03137 | 5995 ft | 228 kts | 7° |
| 2026-05-03 22:42 | 40.06947 | 50.03452 | 5787 ft | 228 kts | 7° |
| 2026-05-03 22:42 | 40.08525 | 50.03779 | 5574 ft | 228 kts | 8° |
| 2026-05-03 22:42 | 40.09529 | 50.03992 | 5438 ft | 228 kts | 8° |
| 2026-05-03 22:43 | 40.10213 | 50.04138 | 5348 ft | 228 kts | 8° |
| 2026-05-03 22:43 | 40.11761 | 50.04470 | 5141 ft | 228 kts | 8° |
| 2026-05-03 22:43 | 40.13327 | 50.04811 | 4932 ft | 228 kts | 8° |
| 2026-05-03 22:43 | 40.14892 | 50.05153 | 4723 ft | 227 kts | 8° |
| 2026-05-03 22:44 | 40.16451 | 50.05496 | 4514 ft | 227 kts | 8° |
| 2026-05-03 22:44 | 40.18005 | 50.05839 | 4304 ft | 226 kts | 8° |
| 2026-05-03 22:44 | 40.19556 | 50.06182 | 4097 ft | 225 kts | 8° |
| 2026-05-03 22:44 | 40.21102 | 50.06525 | 3891 ft | 224 kts | 8° |
| 2026-05-03 22:45 | 40.22622 | 50.06863 | 3689 ft | 223 kts | 8° |
| 2026-05-03 22:45 | 40.24149 | 50.07202 | 3480 ft | 222 kts | 8° |
| 2026-05-03 22:45 | 40.25667 | 50.07540 | 3281 ft | 220 kts | 8° |
| 2026-05-03 22:45 | 40.27168 | 50.07874 | 3080 ft | 217 kts | 8° |
| 2026-05-03 22:46 | 40.28644 | 50.08203 | 2878 ft | 213 kts | 8° |
| 2026-05-03 22:46 | 40.30089 | 50.08525 | 2685 ft | 209 kts | 8° |
| 2026-05-03 22:46 | 40.31514 | 50.08546 | 2482 ft | 203 kts | 346° |
| 2026-05-03 22:46 | 40.32854 | 50.08123 | 2322 ft | 199 kts | 346° |
| 2026-05-03 22:47 | 40.34175 | 50.07736 | 2160 ft | 190 kts | 346° |
| 2026-05-03 22:47 | 40.35422 | 50.07352 | 2035 ft | 176 kts | 345° |
| 2026-05-03 22:47 | 40.36580 | 50.06988 | 1808 ft | 164 kts | 345° |
| 2026-05-03 22:47 | 40.37659 | 50.06647 | 1633 ft | 155 kts | 345° |
| 2026-05-03 22:48 | 40.38700 | 50.06318 | 1393 ft | 150 kts | 345° |
| 2026-05-03 22:48 | 40.39680 | 50.06009 | 1192 ft | 141 kts | 345° |
| 2026-05-03 22:48 | 40.40623 | 50.05711 | 1016 ft | 140 kts | 345° |
| 2026-05-03 22:48 | 40.41578 | 50.05409 | 831 ft | 141 kts | 345° |
| 2026-05-03 22:49 | 40.42535 | 50.05107 | 650 ft | 141 kts | 345° |
| 2026-05-03 22:49 | 40.43484 | 50.04809 | 453 ft | 139 kts | 345° |
| 2026-05-03 22:49 | 40.44412 | 50.04515 | 282 ft | 138 kts | 345° |
| 2026-05-03 22:49 | 40.45356 | 50.04218 | 95 ft | 140 kts | 345° |
| 2026-05-03 22:50 | 40.46276 | 50.03923 | 7 ft | 125 kts | 346° |
| 2026-05-03 22:50 | 40.46930 | 50.03717 | 8 ft | 65 kts | 347° |
| 2026-05-03 22:50 | 40.47326 | 50.03593 | 10 ft | 47 kts | 346° |
| 2026-05-03 22:50 | 40.47623 | 50.03504 | 9 ft | 36 kts | 0° |
| 2026-05-03 22:51 | 40.47635 | 50.03653 | 8 ft | 22 kts | 162° |
| 2026-05-03 22:51 | 40.47487 | 50.03691 | 9 ft | 22 kts | 159° |
| 2026-05-03 22:51 | 40.47347 | 50.03759 | 9 ft | 21 kts | 160° |
| 2026-05-03 22:51 | 40.47211 | 50.03825 | 9 ft | 21 kts | 160° |
| 2026-05-03 22:52 | 40.47079 | 50.03890 | 8 ft | 20 kts | 160° |
| 2026-05-03 22:52 | 40.46945 | 50.03955 | 8 ft | 21 kts | 159° |
| 2026-05-03 22:52 | 40.46851 | 50.04073 | 8 ft | 20 kts | 85° |
| 2026-05-03 22:52 | 40.46883 | 50.04250 | 10 ft | 20 kts | 76° |
| 2026-05-03 22:53 | 40.46906 | 50.04422 | 8 ft | 19 kts | 84° |
| 2026-05-03 22:53 | 40.46912 | 50.04592 | 8 ft | 18 kts | 88° |
| 2026-05-03 22:53 | 40.46917 | 50.04756 | 8 ft | 18 kts | 88° |
| 2026-05-03 22:53 | 40.46920 | 50.04915 | 8 ft | 17 kts | 88° |
| 2026-05-03 22:54 | 40.46924 | 50.05067 | 8 ft | 16 kts | 88° |
| 2026-05-03 22:54 | 40.46927 | 50.05216 | 8 ft | 17 kts | 87° |
| 2026-05-03 22:54 | 40.46902 | 50.05366 | 9 ft | 18 kts | 141° |
| 2026-05-03 22:54 | 40.46786 | 50.05410 | 7 ft | 16 kts | 134° |
| 2026-05-03 22:55 | 40.46772 | 50.05550 | 7 ft | 16 kts | 91° |
| 2026-05-03 22:55 | 40.46774 | 50.05693 | 7 ft | 15 kts | 88° |
| 2026-05-03 22:55 | 40.46774 | 50.05824 | 7 ft | 13 kts | 100° |
| 2026-05-03 22:55 | 40.46737 | 50.05873 | 7 ft | 4 kts | 112° |
| 2026-05-03 22:56 | 40.46751 | 50.05908 | 9 ft | 5 kts | 46° |
| 2026-05-03 22:56 | 40.46775 | 50.05953 | 7 ft | 8 kts | 73° |
| 2026-05-03 22:56 | 40.46776 | 50.06044 | 7 ft | 12 kts | 94° |
| 2026-05-03 22:56 | 40.46702 | 50.06092 | 7 ft | 15 kts | 179° |
| 2026-05-03 22:57 | 40.46581 | 50.06094 | 8 ft | 19 kts | 179° |
| 2026-05-03 22:57 | 40.46434 | 50.06097 | 7 ft | 23 kts | 179° |
| 2026-05-03 22:57 | 40.46265 | 50.06098 | 7 ft | 26 kts | 179° |
| 2026-05-03 22:57 | 40.46076 | 50.06103 | 7 ft | 28 kts | 179° |
| 2026-05-03 22:58 | 40.45875 | 50.06103 | 7 ft | 23 kts | 180° |
| 2026-05-03 22:58 | 40.45793 | 50.06105 | 7 ft | 16 kts | 179° |
| 2026-05-03 22:58 | 40.45687 | 50.06119 | 7 ft | 15 kts | 154° |
| 2026-05-03 22:58 | 40.45655 | 50.06236 | 7 ft | 14 kts | 79° |
| 2026-05-03 22:59 | 40.45689 | 50.06357 | 7 ft | 14 kts | 79° |
| 2026-05-03 22:59 | 40.45678 | 50.06473 | 8 ft | 9 kts | 137° |
| 2026-05-03 22:59 | 40.45618 | 50.06477 | 7 ft | 8 kts | 160° |
| 2026-05-03 22:59 | 40.45608 | 50.06504 | 7 ft | 0 kts | 91° |